Time;durP1;ratioP1;P1;durP2;ratioP2;P2;SDS_P1;SDS_P2;PMS_P1;PMS_P2;Temp;Humidity;BMP_temperature;BMP_pressure;BME280_temperature;BME280_humidity;BME280_pressure;Samples;Min_cycle;Max_cycle;Signal;HPM_P1;HPM_P2
2024/01/21 00:01:26;;;;;;;2.03;1.42;;;0.20;99.90;;;;;;4991461;28;20042;-78
2024/01/21 00:03:52;;;;;;;3.75;1.30;;;0.20;99.90;;;;;;4983289;28;20037;-76
2024/01/21 00:06:18;;;;;;;6.43;3.60;;;0.20;99.90;;;;;;4984996;28;20042;-76
2024/01/21 00:08:44;;;;;;;5.07;3.30;;;0.10;99.90;;;;;;4998697;28;20069;-78
2024/01/21 00:11:10;;;;;;;3.72;1.20;;;0.10;99.90;;;;;;4985798;28;20047;-79
2024/01/21 00:13:35;;;;;;;3.55;2.08;;;0.10;99.90;;;;;;4991220;28;20046;-77
2024/01/21 00:16:01;;;;;;;4.00;2.15;;;0.10;99.90;;;;;;4990640;28;20044;-77
2024/01/21 00:18:27;;;;;;;3.75;2.88;;;0.10;99.90;;;;;;5001642;28;20071;-77
2024/01/21 00:20:53;;;;;;;2.25;1.40;;;0.10;99.90;;;;;;4994144;28;20042;-77
2024/01/21 00:23:19;;;;;;;3.78;2.63;;;0.10;99.90;;;;;;4992462;28;20053;-77
2024/01/21 00:25:45;;;;;;;2.03;1.83;;;0.10;99.90;;;;;;4988739;28;20056;-75
2024/01/21 00:28:11;;;;;;;2.70;2.15;;;0.10;99.90;;;;;;4992657;28;20041;-78
2024/01/21 00:30:37;;;;;;;2.13;1.50;;;0.20;99.90;;;;;;4993660;28;20046;-77
2024/01/21 00:33:03;;;;;;;2.17;1.40;;;0.20;99.90;;;;;;5003634;28;20030;-78
2024/01/21 00:35:28;;;;;;;5.22;1.48;;;0.30;99.90;;;;;;4982410;28;20133;-77
2024/01/21 00:37:54;;;;;;;10.10;1.88;;;0.40;99.90;;;;;;4977791;28;20441;-77
2024/01/21 00:40:20;;;;;;;1.65;1.08;;;0.40;99.90;;;;;;4989076;28;20046;-77
2024/01/21 00:42:46;;;;;;;6.68;2.75;;;0.40;99.90;;;;;;4989031;28;20133;-76
2024/01/21 00:45:12;;;;;;;3.10;2.33;;;0.50;99.90;;;;;;5001947;28;20045;-78
2024/01/21 00:47:37;;;;;;;2.53;1.88;;;0.50;99.90;;;;;;4982318;28;20038;-77
2024/01/21 00:50:04;;;;;;;0.85;0.75;;;0.50;99.90;;;;;;4991052;28;20050;-78
2024/01/21 00:52:29;;;;;;;0.68;0.68;;;0.50;99.90;;;;;;4977248;28;20086;-78
2024/01/21 00:54:55;;;;;;;2.38;1.98;;;0.50;99.90;;;;;;5002343;28;20029;-77
2024/01/21 00:57:21;;;;;;;1.27;1.23;;;0.50;99.90;;;;;;5004530;28;20052;-77
2024/01/21 00:59:47;;;;;;;3.08;1.55;;;0.50;99.90;;;;;;5004210;28;20482;-77
2024/01/21 01:02:13;;;;;;;3.22;2.47;;;0.50;99.90;;;;;;5006304;28;20038;-76
2024/01/21 01:04:39;;;;;;;4.30;1.48;;;0.50;99.90;;;;;;5007953;28;20041;-78
2024/01/21 01:07:05;;;;;;;2.95;1.50;;;0.60;99.90;;;;;;4975230;28;20049;-76
2024/01/21 01:09:31;;;;;;;2.33;2.05;;;0.60;99.90;;;;;;4991796;28;20096;-77
2024/01/21 01:11:57;;;;;;;1.67;1.23;;;0.60;99.90;;;;;;4996212;28;20042;-77
2024/01/21 01:14:23;;;;;;;1.77;1.65;;;0.60;99.90;;;;;;5006286;28;20046;-77
2024/01/21 01:16:49;;;;;;;4.97;2.80;;;0.50;99.90;;;;;;4993584;28;20046;-78
2024/01/21 01:19:14;;;;;;;2.03;1.52;;;0.50;99.90;;;;;;4971389;28;20052;-77
2024/01/21 01:21:40;;;;;;;2.75;1.00;;;0.60;99.90;;;;;;4990610;28;20042;-77
2024/01/21 01:24:10;;;;;;;0.75;0.57;;;0.60;99.90;;;;;;4982549;28;20490;-77
2024/01/21 01:26:35;;;;;;;5.20;2.47;;;0.60;99.90;;;;;;4976266;28;20049;-77
2024/01/21 01:29:01;;;;;;;7.05;2.38;;;0.60;99.90;;;;;;4985059;28;20042;-77
2024/01/21 01:31:27;;;;;;;2.95;1.80;;;0.60;99.90;;;;;;4967834;28;20085;-78
2024/01/21 01:33:53;;;;;;;2.15;1.92;;;0.60;99.90;;;;;;5002645;28;20056;-78
2024/01/21 01:36:18;;;;;;;1.88;1.42;;;0.60;99.90;;;;;;4988511;28;20043;-76
2024/01/21 01:38:44;;;;;;;3.10;1.95;;;0.60;99.90;;;;;;4971057;28;20038;-77
2024/01/21 01:41:10;;;;;;;3.30;2.00;;;0.70;99.90;;;;;;4979144;28;20386;-78
2024/01/21 01:43:36;;;;;;;3.80;1.38;;;0.70;99.90;;;;;;5018251;28;20113;-77
2024/01/21 01:46:03;;;;;;;2.78;1.70;;;0.70;99.90;;;;;;4985354;28;20167;-77
2024/01/21 01:48:30;;;;;;;4.20;2.58;;;0.60;99.90;;;;;;4998682;28;20033;-78
2024/01/21 01:50:58;;;;;;;2.88;1.50;;;0.60;99.90;;;;;;4979249;28;20190;-76
2024/01/21 01:53:24;;;;;;;2.50;1.98;;;0.60;99.90;;;;;;4978289;28;20494;-76
2024/01/21 01:55:50;;;;;;;2.50;1.50;;;0.60;99.90;;;;;;4977918;28;20038;-77
2024/01/21 01:58:18;;;;;;;2.33;1.95;;;0.60;99.90;;;;;;4986276;28;20057;-77
2024/01/21 02:00:45;;;;;;;4.43;2.30;;;0.60;99.90;;;;;;4990473;28;20064;-76
2024/01/21 02:03:12;;;;;;;1.10;0.95;;;0.60;99.90;;;;;;5026211;28;20042;-75
2024/01/21 02:05:38;;;;;;;7.28;2.92;;;0.60;99.90;;;;;;4994392;28;20046;-77
2024/01/21 02:08:04;;;;;;;0.70;0.70;;;0.50;99.90;;;;;;5000807;28;20041;-77
2024/01/21 02:10:30;;;;;;;0.77;0.77;;;0.60;99.90;;;;;;4988787;28;20042;-76
2024/01/21 02:12:57;;;;;;;2.35;1.38;;;0.50;99.90;;;;;;4992534;28;20121;-76
2024/01/21 02:15:23;;;;;;;4.57;2.20;;;0.60;99.90;;;;;;4991317;28;20042;-76
2024/01/21 02:17:49;;;;;;;4.75;1.85;;;0.60;99.90;;;;;;5005006;28;20053;-79
2024/01/21 02:20:16;;;;;;;4.60;1.38;;;0.60;99.90;;;;;;4980610;28;20549;-77
2024/01/21 02:22:42;;;;;;;1.75;1.38;;;0.70;99.90;;;;;;4998250;28;20038;-79
2024/01/21 02:25:09;;;;;;;4.43;1.60;;;0.70;99.90;;;;;;5001139;28;20041;-77
2024/01/21 02:27:36;;;;;;;2.70;1.42;;;0.70;99.90;;;;;;4999821;28;20057;-76
2024/01/21 02:30:02;;;;;;;1.98;1.77;;;0.80;99.90;;;;;;5000409;28;20057;-76
2024/01/21 02:32:28;;;;;;;3.58;1.38;;;0.80;99.90;;;;;;4995883;28;20041;-75
2024/01/21 02:34:54;;;;;;;2.63;2.03;;;0.80;99.90;;;;;;4981239;28;20030;-77
2024/01/21 02:37:20;;;;;;;1.10;0.82;;;0.80;99.90;;;;;;4985512;28;20090;-77
2024/01/21 02:39:45;;;;;;;4.30;2.13;;;0.80;99.90;;;;;;4994545;28;20498;-76
2024/01/21 02:42:11;;;;;;;0.95;0.88;;;0.90;99.90;;;;;;4992308;28;20052;-78
2024/01/21 02:44:37;;;;;;;1.30;1.20;;;0.90;99.90;;;;;;4969273;28;20038;-76
2024/01/21 02:47:04;;;;;;;2.50;1.58;;;0.90;99.90;;;;;;5000222;28;20050;-77
2024/01/21 02:49:30;;;;;;;1.83;1.73;;;0.80;99.90;;;;;;4990942;28;20049;-78
2024/01/21 02:51:56;;;;;;;0.75;0.63;;;0.80;99.90;;;;;;4994417;28;20309;-76
2024/01/21 02:54:22;;;;;;;0.88;0.85;;;0.90;99.90;;;;;;5005262;28;20104;-77
2024/01/21 02:56:48;;;;;;;3.58;1.80;;;0.90;99.90;;;;;;4998427;28;20034;-76
2024/01/21 02:59:14;;;;;;;1.63;1.52;;;0.90;99.90;;;;;;5001585;28;20132;-77
2024/01/21 03:01:40;;;;;;;2.67;2.45;;;1.00;99.90;;;;;;4992786;28;20038;-79
2024/01/21 03:04:09;;;;;;;2.28;1.20;;;1.00;99.90;;;;;;5001239;28;20473;-78
2024/01/21 03:06:35;;;;;;;1.75;1.60;;;1.00;99.90;;;;;;4991943;28;20030;-75
2024/01/21 03:09:00;;;;;;;2.25;1.63;;;1.10;99.90;;;;;;4989820;28;20031;-76
2024/01/21 03:11:26;;;;;;;0.90;0.80;;;1.10;99.90;;;;;;5002608;28;20084;-76
2024/01/21 03:13:53;;;;;;;0.95;0.68;;;1.10;99.90;;;;;;4992266;28;20037;-76
2024/01/21 03:16:19;;;;;;;1.10;0.95;;;1.10;99.90;;;;;;4993202;28;20046;-76
2024/01/21 03:18:44;;;;;;;4.75;1.58;;;1.10;99.90;;;;;;4988263;28;20049;-78
2024/01/21 03:21:10;;;;;;;1.67;1.50;;;1.10;99.90;;;;;;4986331;28;20054;-77
2024/01/21 03:23:36;;;;;;;0.50;0.50;;;1.10;99.90;;;;;;4979390;28;20044;-76
2024/01/21 03:26:02;;;;;;;3.15;2.13;;;1.10;99.90;;;;;;4985771;28;20041;-76
2024/01/21 03:28:27;;;;;;;1.05;0.95;;;1.10;99.90;;;;;;4967128;28;20042;-76
2024/01/21 03:30:53;;;;;;;1.75;0.60;;;1.10;99.90;;;;;;4980192;28;20105;-76
2024/01/21 03:33:19;;;;;;;3.15;1.40;;;1.10;99.90;;;;;;4976468;28;20121;-77
2024/01/21 03:35:45;;;;;;;1.48;1.35;;;1.00;99.90;;;;;;5000637;28;20041;-76
2024/01/21 03:38:11;;;;;;;1.70;1.23;;;0.90;99.90;;;;;;4968729;28;20076;-76
2024/01/21 03:40:37;;;;;;;4.78;1.35;;;1.00;99.90;;;;;;4979182;28;20441;-76
2024/01/21 03:43:02;;;;;;;1.42;1.33;;;1.00;99.90;;;;;;4961003;28;20038;-76
2024/01/21 03:45:28;;;;;;;1.27;0.55;;;1.00;99.90;;;;;;4990309;28;20091;-77
2024/01/21 03:47:54;;;;;;;0.75;0.70;;;1.00;99.90;;;;;;4990029;28;20042;-76
2024/01/21 03:50:20;;;;;;;0.98;0.90;;;1.10;99.90;;;;;;4979820;28;20039;-77
2024/01/21 03:52:47;;;;;;;2.13;1.80;;;1.10;99.90;;;;;;4963831;28;20074;-77
2024/01/21 03:55:17;;;;;;;0.90;0.52;;;1.10;99.90;;;;;;4995606;28;20087;-78
2024/01/21 03:57:43;;;;;;;1.08;0.93;;;1.10;99.90;;;;;;4983424;28;20033;-76
2024/01/21 04:00:10;;;;;;;0.47;0.47;;;1.10;99.90;;;;;;4991644;28;20120;-75
2024/01/21 04:02:36;;;;;;;3.70;0.63;;;1.10;99.90;;;;;;4994165;28;20046;-76
2024/01/21 04:05:03;;;;;;;1.25;1.15;;;1.10;99.90;;;;;;4989307;28;20049;-75
2024/01/21 04:07:30;;;;;;;1.00;1.00;;;1.10;99.90;;;;;;4991256;28;20045;-75
2024/01/21 04:10:17;;;;;;;0.55;0.55;;;1.10;99.90;;;;;;4989466;28;20034;-76
2024/01/21 04:12:43;;;;;;;1.80;1.60;;;1.10;99.90;;;;;;4970804;28;20030;-75
2024/01/21 04:15:09;;;;;;;2.13;0.82;;;1.10;99.90;;;;;;4984473;28;20530;-75
2024/01/21 04:17:35;;;;;;;0.20;0.20;;;1.20;99.90;;;;;;4976523;28;20189;-76
2024/01/21 04:20:01;;;;;;;2.20;0.88;;;1.20;99.90;;;;;;4985308;28;20038;-77
2024/01/21 04:22:35;;;;;;;0.50;0.50;;;1.10;99.90;;;;;;4988627;28;20046;-78
2024/01/21 04:25:01;;;;;;;2.72;1.33;;;1.10;99.90;;;;;;4987918;28;20044;-76
2024/01/21 04:27:27;;;;;;;1.27;0.98;;;1.10;99.90;;;;;;4986430;28;20535;-77
2024/01/21 04:29:53;;;;;;;1.10;0.50;;;1.10;99.90;;;;;;4983044;28;20042;-77
2024/01/21 04:32:18;;;;;;;1.63;1.05;;;1.10;99.90;;;;;;4990545;28;20038;-78
2024/01/21 04:34:44;;;;;;;2.38;1.75;;;1.00;99.90;;;;;;4979205;28;20073;-75
2024/01/21 04:37:10;;;;;;;1.27;1.02;;;1.00;99.90;;;;;;4977464;28;20049;-76
2024/01/21 04:39:36;;;;;;;1.35;0.65;;;1.00;99.90;;;;;;4992004;28;20042;-77
2024/01/21 04:42:02;;;;;;;1.05;0.90;;;1.00;99.90;;;;;;4988869;28;20092;-78
2024/01/21 04:44:27;;;;;;;1.17;1.02;;;1.00;99.90;;;;;;4988496;28;20039;-76
2024/01/21 04:46:53;;;;;;;0.43;0.43;;;0.90;99.90;;;;;;4979490;28;20042;-78
2024/01/21 04:49:19;;;;;;;0.60;0.60;;;0.90;99.90;;;;;;4971114;28;20546;-75
2024/01/21 04:51:45;;;;;;;0.88;0.80;;;0.90;99.90;;;;;;4987134;28;20614;-74
2024/01/21 04:54:10;;;;;;;0.40;0.40;;;0.90;99.90;;;;;;4974767;28;20030;-76
2024/01/21 04:56:36;;;;;;;1.02;1.00;;;0.90;99.90;;;;;;4993406;28;20093;-75
2024/01/21 04:59:03;;;;;;;1.38;1.27;;;0.90;99.90;;;;;;4993000;28;20103;-75
2024/01/21 05:01:28;;;;;;;3.60;1.25;;;0.90;99.90;;;;;;4976060;28;20089;-75
2024/01/21 05:03:54;;;;;;;0.77;0.68;;;0.90;99.90;;;;;;4989738;28;20073;-75
2024/01/21 05:06:20;;;;;;;2.03;1.67;;;0.90;99.90;;;;;;4990289;28;20080;-74
2024/01/21 05:08:46;;;;;;;2.60;0.57;;;1.00;99.90;;;;;;4979085;28;20046;-74
2024/01/21 05:11:15;;;;;;;0.65;0.47;;;1.00;99.90;;;;;;4974415;28;20503;-74
2024/01/21 05:13:42;;;;;;;0.77;0.68;;;1.00;99.90;;;;;;4971572;28;20066;-74
2024/01/21 05:16:08;;;;;;;1.05;0.65;;;1.10;99.90;;;;;;4988581;28;20037;-74
2024/01/21 05:18:37;;;;;;;0.35;0.32;;;1.10;99.90;;;;;;4968301;28;20051;-77
2024/01/21 05:21:03;;;;;;;1.20;0.95;;;1.10;99.90;;;;;;4984347;28;20100;-75
2024/01/21 05:23:28;;;;;;;0.60;0.60;;;1.10;99.90;;;;;;4983368;28;20074;-74
2024/01/21 05:25:54;;;;;;;1.20;0.60;;;1.10;99.90;;;;;;4984502;28;20092;-75
2024/01/21 05:28:20;;;;;;;1.10;0.60;;;1.10;99.90;;;;;;4994757;28;20053;-76
2024/01/21 05:30:46;;;;;;;0.75;0.75;;;1.10;99.90;;;;;;4986601;28;20053;-74
2024/01/21 05:33:12;;;;;;;4.32;0.80;;;1.10;99.90;;;;;;4981639;28;20042;-76
2024/01/21 05:35:38;;;;;;;1.38;1.10;;;1.10;99.90;;;;;;4978992;28;20170;-75
2024/01/21 05:38:04;;;;;;;0.90;0.60;;;1.10;99.90;;;;;;4982834;28;20034;-75
2024/01/21 05:40:30;;;;;;;1.65;1.42;;;1.20;99.90;;;;;;4984968;28;20489;-74
2024/01/21 05:42:56;;;;;;;0.93;0.88;;;1.20;99.90;;;;;;4984796;28;20134;-74
2024/01/21 05:45:22;;;;;;;1.30;0.82;;;1.20;99.90;;;;;;4982419;28;20116;-74
2024/01/21 05:47:48;;;;;;;2.58;1.10;;;1.20;99.90;;;;;;4969215;28;20402;-75
2024/01/21 05:50:14;;;;;;;2.00;1.65;;;1.30;99.90;;;;;;4985446;28;20046;-76
2024/01/21 05:52:40;;;;;;;1.20;1.10;;;1.30;99.90;;;;;;4985777;28;20054;-73
2024/01/21 05:55:06;;;;;;;0.75;0.45;;;1.20;99.90;;;;;;4966768;28;20057;-75
2024/01/21 05:57:32;;;;;;;0.32;0.32;;;1.20;99.90;;;;;;4977223;28;20126;-74
2024/01/21 05:59:58;;;;;;;1.58;1.40;;;1.20;99.90;;;;;;4977413;28;20074;-74
2024/01/21 06:02:24;;;;;;;0.95;0.88;;;1.20;99.90;;;;;;4970014;28;20053;-76
2024/01/21 06:04:50;;;;;;;2.47;1.48;;;1.20;99.90;;;;;;4981724;28;20113;-74
2024/01/21 06:07:17;;;;;;;1.63;0.57;;;1.20;99.90;;;;;;4988705;28;20066;-75
2024/01/21 06:09:42;;;;;;;0.20;0.20;;;1.20;99.90;;;;;;4981326;28;20061;-74
2024/01/21 06:12:08;;;;;;;1.65;1.45;;;1.20;99.90;;;;;;4977560;28;20745;-74
2024/01/21 06:14:34;;;;;;;2.65;0.73;;;1.20;99.90;;;;;;4964927;28;20045;-74
2024/01/21 06:17:00;;;;;;;1.58;1.10;;;1.10;99.90;;;;;;4977128;28;20054;-74
2024/01/21 06:19:26;;;;;;;1.27;1.17;;;1.10;99.90;;;;;;4983918;28;20461;-73
2024/01/21 06:21:51;;;;;;;0.35;0.22;;;1.10;99.90;;;;;;4987963;28;20077;-74
2024/01/21 06:24:17;;;;;;;1.85;1.00;;;1.10;99.90;;;;;;4979656;28;20034;-73
2024/01/21 06:26:44;;;;;;;1.70;1.10;;;1.10;99.90;;;;;;4981741;28;20041;-73
2024/01/21 06:29:10;;;;;;;2.28;0.88;;;1.20;99.90;;;;;;4982776;28;20117;-73
2024/01/21 06:31:36;;;;;;;1.45;0.85;;;1.20;99.90;;;;;;4980334;28;20125;-74
2024/01/21 06:34:02;;;;;;;0.52;0.52;;;1.30;99.90;;;;;;4980819;28;20091;-75
2024/01/21 06:36:28;;;;;;;1.10;1.00;;;1.30;99.90;;;;;;4971920;28;20040;-73
2024/01/21 06:38:53;;;;;;;2.80;1.85;;;1.40;99.90;;;;;;4977005;28;20129;-73
2024/01/21 06:41:19;;;;;;;1.55;1.13;;;1.40;99.90;;;;;;4980390;28;20046;-75
2024/01/21 06:43:45;;;;;;;0.75;0.57;;;1.50;99.90;;;;;;4981194;28;20046;-75
2024/01/21 06:46:12;;;;;;;6.60;1.48;;;1.60;99.90;;;;;;4981295;28;20050;-74
2024/01/21 06:48:38;;;;;;;1.70;0.88;;;1.70;99.90;;;;;;4968976;28;20048;-74
2024/01/21 06:51:09;;;;;;;1.15;0.90;;;1.90;99.90;;;;;;4981488;28;20058;-75
2024/01/21 06:53:36;;;;;;;0.82;0.82;;;1.90;99.90;;;;;;4988475;28;20038;-74
2024/01/21 06:56:07;;;;;;;4.18;1.35;;;2.00;99.90;;;;;;4976699;28;20081;-75
2024/01/21 06:58:36;;;;;;;0.70;0.60;;;2.00;99.90;;;;;;4976778;28;20042;-74
2024/01/21 07:01:03;;;;;;;1.27;1.17;;;2.00;99.90;;;;;;4964523;28;20395;-74
2024/01/21 07:03:29;;;;;;;2.50;1.63;;;2.10;99.90;;;;;;4972909;28;20470;-74
2024/01/21 07:05:55;;;;;;;1.92;0.98;;;2.10;99.90;;;;;;4960728;28;20034;-74
2024/01/21 07:08:21;;;;;;;3.30;1.30;;;2.00;99.90;;;;;;4971596;28;20173;-73
2024/01/21 07:10:47;;;;;;;1.50;1.40;;;2.10;99.90;;;;;;4979018;28;20049;-73
2024/01/21 07:13:12;;;;;;;1.10;0.75;;;2.10;99.90;;;;;;4982511;28;20042;-73
2024/01/21 07:15:39;;;;;;;5.75;2.60;;;2.10;99.90;;;;;;4980308;28;20483;-73
2024/01/21 07:18:06;;;;;;;1.17;0.85;;;2.00;99.90;;;;;;4986616;28;20438;-75
2024/01/21 07:20:33;;;;;;;1.60;1.05;;;2.10;99.90;;;;;;4985012;28;20049;-73
2024/01/21 07:22:59;;;;;;;2.10;0.77;;;2.10;99.90;;;;;;4976905;28;20037;-73
2024/01/21 07:25:25;;;;;;;1.75;0.93;;;2.10;99.90;;;;;;4983890;28;20501;-73
2024/01/21 07:27:51;;;;;;;1.92;1.35;;;2.10;99.90;;;;;;4984745;28;20478;-74
2024/01/21 07:30:17;;;;;;;1.80;1.55;;;2.10;99.90;;;;;;4976804;28;20066;-73
2024/01/21 07:32:43;;;;;;;4.32;1.42;;;2.10;99.90;;;;;;4969494;28;20465;-73
2024/01/21 07:35:09;;;;;;;2.38;0.90;;;2.00;99.90;;;;;;4979943;28;20034;-73
2024/01/21 07:37:36;;;;;;;0.60;0.60;;;2.10;99.90;;;;;;4982709;28;20493;-73
2024/01/21 07:40:03;;;;;;;0.98;0.88;;;2.10;99.90;;;;;;4983533;28;20057;-74
2024/01/21 07:42:29;;;;;;;2.05;1.42;;;2.10;99.90;;;;;;4980047;28;20065;-73
2024/01/21 07:44:54;;;;;;;2.28;1.73;;;2.00;99.90;;;;;;4975228;28;20482;-72
2024/01/21 07:47:20;;;;;;;1.50;1.10;;;2.00;99.90;;;;;;4975419;28;20043;-73
2024/01/21 07:49:46;;;;;;;2.35;1.20;;;2.10;99.90;;;;;;4979441;28;20050;-73
2024/01/21 07:52:12;;;;;;;1.63;1.45;;;2.10;99.90;;;;;;4978106;28;20056;-72
2024/01/21 07:54:38;;;;;;;3.10;1.88;;;2.10;99.90;;;;;;4975156;28;20046;-74
2024/01/21 07:57:05;;;;;;;5.38;1.33;;;2.10;99.90;;;;;;4975885;28;20049;-73
2024/01/21 07:59:30;;;;;;;1.85;1.13;;;2.10;99.90;;;;;;4975341;28;20043;-72
2024/01/21 08:01:56;;;;;;;4.60;2.08;;;2.10;99.90;;;;;;4958916;28;20069;-72
2024/01/21 08:04:22;;;;;;;2.50;1.15;;;2.00;99.90;;;;;;4979465;28;20103;-73
2024/01/21 08:06:48;;;;;;;4.05;1.88;;;2.00;99.90;;;;;;4977249;28;20620;-72
2024/01/21 08:09:15;;;;;;;4.90;1.70;;;2.10;99.90;;;;;;4978177;28;20074;-72
2024/01/21 08:11:41;;;;;;;4.25;2.13;;;2.10;99.90;;;;;;4975488;28;20078;-73
2024/01/21 08:14:07;;;;;;;3.45;1.77;;;2.10;99.90;;;;;;4976911;28;20494;-72
2024/01/21 08:16:33;;;;;;;2.75;1.45;;;2.20;99.90;;;;;;4976860;28;20040;-73
2024/01/21 08:18:58;;;;;;;6.80;1.88;;;2.20;99.90;;;;;;4993741;28;20104;-73
2024/01/21 08:21:24;;;;;;;2.55;1.70;;;2.20;99.90;;;;;;4983045;28;20137;-73
2024/01/21 08:23:50;;;;;;;1.35;0.45;;;2.20;99.90;;;;;;4979285;28;20045;-73
2024/01/21 08:26:16;;;;;;;3.15;1.38;;;2.20;99.90;;;;;;4960456;28;20121;-73
2024/01/21 08:28:43;;;;;;;0.70;0.70;;;2.30;99.90;;;;;;4965683;28;20376;-72
2024/01/21 08:31:08;;;;;;;1.08;0.98;;;2.30;99.90;;;;;;4978050;28;20039;-72
2024/01/21 08:33:36;;;;;;;3.50;1.95;;;2.30;99.90;;;;;;4981588;28;20747;-73
2024/01/21 08:36:02;;;;;;;2.15;1.02;;;2.30;99.90;;;;;;4981446;28;20034;-73
2024/01/21 08:38:28;;;;;;;4.18;1.60;;;2.30;99.90;;;;;;4985880;28;20074;-73
2024/01/21 08:40:54;;;;;;;1.33;1.02;;;2.40;99.90;;;;;;4974640;28;20121;-72
2024/01/21 08:43:20;;;;;;;4.63;1.67;;;2.40;99.90;;;;;;4974652;28;20124;-72
2024/01/21 08:45:46;;;;;;;6.85;1.30;;;2.40;99.90;;;;;;4974870;28;20050;-71
2024/01/21 08:48:12;;;;;;;4.80;2.05;;;2.40;99.90;;;;;;4982312;28;20084;-72
2024/01/21 08:50:39;;;;;;;2.70;1.60;;;2.40;99.90;;;;;;4977335;28;20431;-73
2024/01/21 08:53:04;;;;;;;1.33;1.17;;;2.40;99.90;;;;;;4975821;28;20105;-71
2024/01/21 08:55:30;;;;;;;4.00;2.42;;;2.40;99.90;;;;;;4978654;28;20117;-72
2024/01/21 08:57:56;;;;;;;3.38;1.90;;;2.50;99.90;;;;;;4980651;28;20092;-72
2024/01/21 09:00:22;;;;;;;5.43;2.10;;;2.50;99.90;;;;;;4978947;28;20045;-72
2024/01/21 09:02:48;;;;;;;3.65;2.03;;;2.50;99.90;;;;;;4982231;28;20045;-72
2024/01/21 09:05:14;;;;;;;3.00;1.42;;;2.60;99.90;;;;;;4976390;28;20540;-71
2024/01/21 09:07:40;;;;;;;2.25;1.33;;;2.60;99.90;;;;;;4986915;28;20041;-73
2024/01/21 09:10:08;;;;;;;1.55;0.95;;;2.60;99.90;;;;;;4983326;28;20073;-72
2024/01/21 09:12:35;;;;;;;2.30;1.77;;;2.60;99.90;;;;;;4976021;28;20041;-72
2024/01/21 09:15:01;;;;;;;2.75;2.00;;;2.60;99.90;;;;;;4982351;28;20050;-73
2024/01/21 09:17:27;;;;;;;3.47;1.75;;;2.60;99.90;;;;;;4977610;28;20457;-73
2024/01/21 09:19:53;;;;;;;2.72;1.83;;;2.70;99.90;;;;;;4976132;28;20050;-74
2024/01/21 09:22:19;;;;;;;1.90;1.45;;;2.70;99.90;;;;;;4981700;28;20042;-74
2024/01/21 09:24:44;;;;;;;3.72;2.00;;;2.70;99.90;;;;;;4977683;28;20077;-74
2024/01/21 09:27:10;;;;;;;3.92;1.80;;;2.80;99.90;;;;;;4983165;28;20566;-74
2024/01/21 09:29:36;;;;;;;4.72;2.38;;;2.80;99.90;;;;;;4978435;28;20077;-74
2024/01/21 09:32:02;;;;;;;2.05;1.48;;;2.90;99.90;;;;;;4978878;28;20046;-73
2024/01/21 09:34:28;;;;;;;4.07;3.03;;;3.00;99.90;;;;;;4980390;28;20571;-74
2024/01/21 09:36:53;;;;;;;1.65;0.95;;;3.00;99.90;;;;;;4975531;28;20035;-74
2024/01/21 09:39:19;;;;;;;2.90;1.70;;;3.10;99.90;;;;;;4978027;28;20093;-75
2024/01/21 09:41:53;;;;;;;4.65;1.55;;;3.10;99.90;;;;;;4958746;28;20042;-75
2024/01/21 09:44:20;;;;;;;2.83;1.80;;;3.10;99.90;;;;;;4981128;28;20125;-75
2024/01/21 09:46:53;;;;;;;4.78;2.55;;;3.10;99.90;;;;;;4979547;28;20065;-76
2024/01/21 09:49:20;;;;;;;3.50;2.22;;;3.10;99.90;;;;;;4976113;28;20185;-74
2024/01/21 09:51:47;;;;;;;2.05;1.23;;;3.10;99.90;;;;;;4975396;28;20045;-73
2024/01/21 09:54:13;;;;;;;4.15;2.30;;;3.10;99.90;;;;;;4986117;28;20161;-73
2024/01/21 09:56:41;;;;;;;3.47;1.77;;;3.10;99.90;;;;;;4974778;28;20121;-73
2024/01/21 09:59:09;;;;;;;6.63;2.58;;;3.10;99.90;;;;;;4977161;28;20092;-73
2024/01/21 10:01:37;;;;;;;5.43;1.70;;;3.20;99.90;;;;;;4974373;28;20050;-74
2024/01/21 10:04:03;;;;;;;4.65;2.22;;;3.30;99.90;;;;;;4977116;28;20088;-74
2024/01/21 10:06:29;;;;;;;1.80;1.25;;;3.20;99.90;;;;;;4983074;28;20058;-74
2024/01/21 10:09:13;;;;;;;5.75;2.28;;;3.30;99.90;;;;;;4986538;28;20127;-74
2024/01/21 10:11:40;;;;;;;3.58;1.90;;;3.40;99.90;;;;;;4976874;28;20039;-74
2024/01/21 10:14:06;;;;;;;0.90;0.90;;;3.40;99.90;;;;;;4979874;28;20045;-75
2024/01/21 10:16:32;;;;;;;1.10;0.95;;;3.40;99.90;;;;;;4984592;28;20394;-74
2024/01/21 10:18:58;;;;;;;5.47;1.95;;;3.40;99.90;;;;;;4984525;28;20049;-73
2024/01/21 10:21:24;;;;;;;9.52;2.42;;;3.40;99.90;;;;;;4981894;28;20170;-74
2024/01/21 10:23:49;;;;;;;2.58;1.77;;;3.50;99.90;;;;;;4981684;28;20045;-74
2024/01/21 10:26:15;;;;;;;3.60;2.55;;;3.50;99.90;;;;;;4981568;28;20120;-74
2024/01/21 10:28:42;;;;;;;9.10;2.75;;;3.40;99.90;;;;;;4988372;28;20062;-74
2024/01/21 10:31:08;;;;;;;3.35;1.48;;;3.40;99.90;;;;;;4981191;28;20042;-75
2024/01/21 10:33:34;;;;;;;4.35;2.13;;;3.50;99.90;;;;;;4961092;28;20046;-75
2024/01/21 10:36:01;;;;;;;3.83;2.17;;;3.50;99.90;;;;;;4978859;28;20030;-74
2024/01/21 10:38:41;;;;;;;3.35;1.92;;;3.60;99.90;;;;;;4987258;28;20037;-74
2024/01/21 10:41:08;;;;;;;5.65;1.63;;;3.60;99.90;;;;;;4987159;28;20042;-72
2024/01/21 10:43:36;;;;;;;5.63;1.85;;;3.60;99.90;;;;;;4982221;28;20042;-75
2024/01/21 10:46:04;;;;;;;5.53;2.00;;;3.60;99.90;;;;;;4960703;28;20077;-73
2024/01/21 10:48:30;;;;;;;5.35;1.77;;;3.60;99.90;;;;;;4977002;28;20046;-73
2024/01/21 10:50:56;;;;;;;4.82;1.58;;;3.60;99.90;;;;;;4980628;28;20684;-73
2024/01/21 10:53:23;;;;;;;5.10;3.03;;;3.70;99.90;;;;;;4982067;28;20130;-73
2024/01/21 10:55:51;;;;;;;5.03;2.35;;;3.70;99.90;;;;;;4976618;28;20096;-74
2024/01/21 10:58:17;;;;;;;2.95;1.42;;;3.70;99.90;;;;;;4976951;28;20041;-73
2024/01/21 11:00:44;;;;;;;5.43;2.47;;;3.70;99.90;;;;;;4983944;28;20069;-75
2024/01/21 11:03:30;;;;;;;4.00;2.03;;;3.80;99.90;;;;;;4976638;28;20050;-75
2024/01/21 11:06:03;;;;;;;3.53;1.92;;;3.80;99.90;;;;;;4992823;28;20045;-76
2024/01/21 11:08:29;;;;;;;6.70;2.22;;;3.70;99.90;;;;;;4969931;28;20040;-76
2024/01/21 11:11:13;;;;;;;1.08;0.82;;;3.70;99.90;;;;;;4982967;28;20053;-75
2024/01/21 11:13:47;;;;;;;4.88;1.58;;;3.80;99.90;;;;;;4975662;28;20046;-75
2024/01/21 11:16:28;;;;;;;1.58;1.05;;;3.80;99.90;;;;;;5011938;28;20092;-75
2024/01/21 11:18:57;;;;;;;4.45;2.25;;;3.80;99.90;;;;;;5008173;28;20116;-75
2024/01/21 11:21:24;;;;;;;5.50;3.25;;;3.80;99.90;;;;;;4981283;28;20045;-74
2024/01/21 11:24:04;;;;;;;6.38;2.55;;;3.80;99.90;;;;;;4987763;28;20467;-73
2024/01/21 11:26:31;;;;;;;7.05;2.17;;;3.80;99.90;;;;;;4987560;28;20048;-73
2024/01/21 11:28:59;;;;;;;3.97;1.73;;;3.80;99.90;;;;;;4972697;28;20101;-74
2024/01/21 11:31:25;;;;;;;2.42;1.38;;;3.80;99.90;;;;;;4978749;28;20431;-74
2024/01/21 11:34:10;;;;;;;2.70;2.10;;;3.80;99.90;;;;;;4963897;28;20159;-74
2024/01/21 11:36:38;;;;;;;4.10;2.10;;;3.80;99.90;;;;;;4975824;28;20043;-74
2024/01/21 11:39:06;;;;;;;5.07;2.42;;;3.80;99.90;;;;;;4981071;28;20046;-74
2024/01/21 11:41:43;;;;;;;2.85;1.90;;;3.80;99.90;;;;;;4985331;28;20494;-73
2024/01/21 11:44:22;;;;;;;3.88;2.28;;;3.80;99.90;;;;;;4966628;28;20118;-73
2024/01/21 11:46:49;;;;;;;4.95;2.28;;;3.80;99.90;;;;;;4979304;28;20038;-73
2024/01/21 11:49:15;;;;;;;5.38;2.58;;;3.80;99.90;;;;;;4979332;28;20069;-72
2024/01/21 11:51:41;;;;;;;6.38;2.40;;;3.80;99.90;;;;;;4976700;28;20149;-73
2024/01/21 11:54:08;;;;;;;6.18;2.97;;;3.80;99.90;;;;;;4975417;28;20121;-74
2024/01/21 11:56:37;;;;;;;4.40;2.45;;;3.90;99.90;;;;;;4976453;28;20154;-73
2024/01/21 11:59:08;;;;;;;5.10;3.00;;;3.90;99.90;;;;;;4978761;28;20497;-73
2024/01/21 12:01:35;;;;;;;1.08;0.98;;;4.00;99.90;;;;;;4978304;28;20356;-73
2024/01/21 12:04:05;;;;;;;4.40;2.85;;;4.00;99.90;;;;;;4972692;28;20418;-73
2024/01/21 12:06:50;;;;;;;3.50;2.13;;;4.00;99.90;;;;;;4962765;28;20042;-73
2024/01/21 12:09:16;;;;;;;3.55;1.67;;;4.10;99.90;;;;;;4965469;28;20069;-73
2024/01/21 12:11:43;;;;;;;6.07;2.95;;;4.10;99.90;;;;;;4979037;28;20050;-72
2024/01/21 12:14:14;;;;;;;2.97;1.63;;;4.10;99.90;;;;;;4963015;28;20488;-73
2024/01/21 12:16:44;;;;;;;9.35;2.58;;;4.20;99.90;;;;;;4974869;28;20049;-74
2024/01/21 12:19:11;;;;;;;6.97;2.75;;;4.20;99.90;;;;;;4976562;28;20314;-73
2024/01/21 12:21:36;;;;;;;6.80;2.80;;;4.20;99.90;;;;;;4979030;28;20478;-72
2024/01/21 12:24:03;;;;;;;3.00;1.70;;;4.20;99.90;;;;;;4980693;28;20053;-73
2024/01/21 12:26:30;;;;;;;6.18;2.53;;;4.20;99.90;;;;;;4987798;28;20046;-74
2024/01/21 12:29:09;;;;;;;6.63;2.60;;;4.20;99.90;;;;;;4988984;28;20041;-72
2024/01/21 12:31:38;;;;;;;3.05;1.98;;;4.30;99.90;;;;;;4975495;28;20050;-72
2024/01/21 12:34:15;;;;;;;3.22;2.15;;;4.30;99.90;;;;;;4980016;28;20459;-73
2024/01/21 12:37:12;;;;;;;2.45;1.60;;;4.30;99.90;;;;;;4975559;28;20042;-73
2024/01/21 12:39:46;;;;;;;5.00;2.65;;;4.30;99.90;;;;;;4992482;28;20078;-72
2024/01/21 12:42:12;;;;;;;2.17;1.27;;;4.30;99.90;;;;;;4981147;28;20044;-73
2024/01/21 12:44:39;;;;;;;5.15;2.50;;;4.40;99.90;;;;;;4975805;28;20038;-72
2024/01/21 12:47:07;;;;;;;1.63;1.52;;;4.40;99.90;;;;;;4962686;28;20056;-73
2024/01/21 12:49:36;;;;;;;5.63;2.63;;;4.40;99.90;;;;;;4962883;28;20474;-73
2024/01/21 12:52:03;;;;;;;4.82;3.05;;;4.40;99.90;;;;;;4996042;28;20054;-72
2024/01/21 12:54:39;;;;;;;5.83;2.60;;;4.40;99.90;;;;;;4981562;28;20475;-73
2024/01/21 12:57:10;;;;;;;6.35;2.08;;;4.40;99.90;;;;;;4983194;28;20050;-73